sensor_id;sensor_type;location;lat;lon;timestamp;temperature;humidity
58153;DHT22;43967;51.634;5.566;2022-08-19T00:03:10;27.30;58.70
58153;DHT22;43967;51.634;5.566;2022-08-19T00:08:11;27.30;58.70
58153;DHT22;43967;51.634;5.566;2022-08-19T00:13:12;27.30;58.70
58153;DHT22;43967;51.634;5.566;2022-08-19T00:18:13;27.30;58.70
58153;DHT22;43967;51.634;5.566;2022-08-19T00:23:14;27.30;58.70
58153;DHT22;43967;51.634;5.566;2022-08-19T00:28:16;27.30;58.70
58153;DHT22;43967;51.634;5.566;2022-08-19T00:33:17;27.30;58.70
58153;DHT22;43967;51.634;5.566;2022-08-19T00:38:18;27.30;58.70
58153;DHT22;43967;51.634;5.566;2022-08-19T00:43:21;27.30;58.70
58153;DHT22;43967;51.634;5.566;2022-08-19T00:48:23;27.30;58.70
58153;DHT22;43967;51.634;5.566;2022-08-19T00:53:27;27.30;58.70
58153;DHT22;43967;51.634;5.566;2022-08-19T00:58:33;27.20;58.60
58153;DHT22;43967;51.634;5.566;2022-08-19T01:03:35;27.20;58.60
58153;DHT22;43967;51.634;5.566;2022-08-19T01:08:36;27.20;59.30
58153;DHT22;43967;51.634;5.566;2022-08-19T01:13:37;27.20;58.50
58153;DHT22;43967;51.634;5.566;2022-08-19T01:18:41;27.20;58.60
58153;DHT22;43967;51.634;5.566;2022-08-19T01:23:44;27.20;58.50
58153;DHT22;43967;51.634;5.566;2022-08-19T01:28:47;27.20;58.50
58153;DHT22;43967;51.634;5.566;2022-08-19T01:33:49;27.20;58.50
58153;DHT22;43967;51.634;5.566;2022-08-19T01:38:51;27.20;58.50
58153;DHT22;43967;51.634;5.566;2022-08-19T01:43:53;27.20;58.50
58153;DHT22;43967;51.634;5.566;2022-08-19T01:48:55;27.20;58.50
58153;DHT22;43967;51.634;5.566;2022-08-19T01:53:56;27.10;59.10
58153;DHT22;43967;51.634;5.566;2022-08-19T01:59:00;27.10;58.40
58153;DHT22;43967;51.634;5.566;2022-08-19T02:04:02;27.10;58.40
58153;DHT22;43967;51.634;5.566;2022-08-19T02:09:05;27.10;58.40
58153;DHT22;43967;51.634;5.566;2022-08-19T02:14:07;27.10;58.40
58153;DHT22;43967;51.634;5.566;2022-08-19T02:19:08;27.10;58.30
58153;DHT22;43967;51.634;5.566;2022-08-19T02:24:09;27.10;58.30
58153;DHT22;43967;51.634;5.566;2022-08-19T02:29:11;27.10;58.30
58153;DHT22;43967;51.634;5.566;2022-08-19T02:34:14;27.10;58.20
58153;DHT22;43967;51.634;5.566;2022-08-19T02:39:15;27.10;58.20
58153;DHT22;43967;51.634;5.566;2022-08-19T02:44:17;27.10;58.20
58153;DHT22;43967;51.634;5.566;2022-08-19T02:49:18;27.10;58.10
58153;DHT22;43967;51.634;5.566;2022-08-19T02:54:19;27.10;58.20
58153;DHT22;43967;51.634;5.566;2022-08-19T02:59:21;27.10;58.10
58153;DHT22;43967;51.634;5.566;2022-08-19T03:04:22;27.00;58.00
58153;DHT22;43967;51.634;5.566;2022-08-19T03:09:23;27.00;58.00
58153;DHT22;43967;51.634;5.566;2022-08-19T03:14:24;27.00;58.00
58153;DHT22;43967;51.634;5.566;2022-08-19T03:19:25;27.00;58.10
58153;DHT22;43967;51.634;5.566;2022-08-19T03:24:26;27.00;58.00
58153;DHT22;43967;51.634;5.566;2022-08-19T03:29:29;27.00;58.00
58153;DHT22;43967;51.634;5.566;2022-08-19T03:34:32;27.00;57.90
58153;DHT22;43967;51.634;5.566;2022-08-19T03:39:36;27.00;58.00
58153;DHT22;43967;51.634;5.566;2022-08-19T03:44:38;27.00;57.90
58153;DHT22;43967;51.634;5.566;2022-08-19T03:49:39;27.00;57.90
58153;DHT22;43967;51.634;5.566;2022-08-19T03:54:40;27.00;57.90
58153;DHT22;43967;51.634;5.566;2022-08-19T03:59:41;27.00;57.80
58153;DHT22;43967;51.634;5.566;2022-08-19T04:04:43;27.00;57.80
58153;DHT22;43967;51.634;5.566;2022-08-19T04:09:44;27.00;57.80
58153;DHT22;43967;51.634;5.566;2022-08-19T04:14:46;26.90;57.70
58153;DHT22;43967;51.634;5.566;2022-08-19T04:19:47;26.90;57.70
58153;DHT22;43967;51.634;5.566;2022-08-19T04:24:48;26.90;57.70
58153;DHT22;43967;51.634;5.566;2022-08-19T04:29:49;26.90;57.70
58153;DHT22;43967;51.634;5.566;2022-08-19T04:34:50;26.90;57.70
58153;DHT22;43967;51.634;5.566;2022-08-19T04:39:51;26.90;57.60
58153;DHT22;43967;51.634;5.566;2022-08-19T04:44:53;26.90;57.60
58153;DHT22;43967;51.634;5.566;2022-08-19T04:49:54;26.90;57.60
58153;DHT22;43967;51.634;5.566;2022-08-19T04:54:55;26.90;57.60
58153;DHT22;43967;51.634;5.566;2022-08-19T04:59:56;26.80;57.50
58153;DHT22;43967;51.634;5.566;2022-08-19T05:04:58;26.90;57.50
58153;DHT22;43967;51.634;5.566;2022-08-19T05:09:59;26.80;57.50
58153;DHT22;43967;51.634;5.566;2022-08-19T05:15:03;26.80;57.50
58153;DHT22;43967;51.634;5.566;2022-08-19T05:20:06;26.80;57.50
58153;DHT22;43967;51.634;5.566;2022-08-19T05:25:11;26.80;57.50
58153;DHT22;43967;51.634;5.566;2022-08-19T05:30:13;26.80;57.50
58153;DHT22;43967;51.634;5.566;2022-08-19T05:35:14;26.80;57.50
58153;DHT22;43967;51.634;5.566;2022-08-19T05:40:15;26.80;57.50
58153;DHT22;43967;51.634;5.566;2022-08-19T05:45:16;26.80;57.50
58153;DHT22;43967;51.634;5.566;2022-08-19T05:50:18;26.90;57.60
58153;DHT22;43967;51.634;5.566;2022-08-19T05:55:19;26.80;57.60
58153;DHT22;43967;51.634;5.566;2022-08-19T06:00:20;26.90;57.70
58153;DHT22;43967;51.634;5.566;2022-08-19T06:05:21;26.80;57.60
58153;DHT22;43967;51.634;5.566;2022-08-19T06:10:23;26.90;57.70
58153;DHT22;43967;51.634;5.566;2022-08-19T06:15:24;26.90;57.70
58153;DHT22;43967;51.634;5.566;2022-08-19T06:20:26;26.90;57.70
58153;DHT22;43967;51.634;5.566;2022-08-19T06:25:27;26.90;57.70
58153;DHT22;43967;51.634;5.566;2022-08-19T06:30:28;26.90;57.80
58153;DHT22;43967;51.634;5.566;2022-08-19T06:35:29;26.90;57.80
58153;DHT22;43967;51.634;5.566;2022-08-19T06:40:31;26.90;58.50
58153;DHT22;43967;51.634;5.566;2022-08-19T06:45:33;26.90;57.70
58153;DHT22;43967;51.634;5.566;2022-08-19T06:50:34;26.90;57.80
58153;DHT22;43967;51.634;5.566;2022-08-19T06:55:35;26.90;57.90
58153;DHT22;43967;51.634;5.566;2022-08-19T07:00:37;27.00;58.00
58153;DHT22;43967;51.634;5.566;2022-08-19T07:05:40;27.00;57.90
58153;DHT22;43967;51.634;5.566;2022-08-19T07:10:45;27.00;57.90
58153;DHT22;43967;51.634;5.566;2022-08-19T07:15:46;27.00;57.90
58153;DHT22;43967;51.634;5.566;2022-08-19T07:20:47;27.00;57.80
58153;DHT22;43967;51.634;5.566;2022-08-19T07:25:48;27.10;57.90
58153;DHT22;43967;51.634;5.566;2022-08-19T07:30:49;27.10;57.70
58153;DHT22;43967;51.634;5.566;2022-08-19T07:35:51;27.10;57.70
58153;DHT22;43967;51.634;5.566;2022-08-19T07:40:53;27.10;57.70
58153;DHT22;43967;51.634;5.566;2022-08-19T07:45:55;27.20;57.80
58153;DHT22;43967;51.634;5.566;2022-08-19T07:50:59;27.20;57.70
58153;DHT22;43967;51.634;5.566;2022-08-19T07:56:02;27.20;57.70
58153;DHT22;43967;51.634;5.566;2022-08-19T08:01:04;27.20;57.80
58153;DHT22;43967;51.634;5.566;2022-08-19T08:06:06;27.30;57.80
58153;DHT22;43967;51.634;5.566;2022-08-19T08:11:07;27.30;57.70
58153;DHT22;43967;51.634;5.566;2022-08-19T08:16:09;27.30;57.70
58153;DHT22;43967;51.634;5.566;2022-08-19T08:21:10;27.30;57.70
58153;DHT22;43967;51.634;5.566;2022-08-19T08:26:11;27.40;57.90
58153;DHT22;43967;51.634;5.566;2022-08-19T08:31:12;27.30;57.70
58153;DHT22;43967;51.634;5.566;2022-08-19T08:36:13;27.40;57.80
58153;DHT22;43967;51.634;5.566;2022-08-19T08:51:40;27.30;57.70
58153;DHT22;43967;51.634;5.566;2022-08-19T08:56:44;27.30;57.60
58153;DHT22;43967;51.634;5.566;2022-08-19T09:01:46;27.40;57.70
58153;DHT22;43967;51.634;5.566;2022-08-19T09:06:59;27.30;57.70
58153;DHT22;43967;51.634;5.566;2022-08-19T09:17:29;27.30;57.70
58153;DHT22;43967;51.634;5.566;2022-08-19T09:22:31;27.30;57.70
58153;DHT22;43967;51.634;5.566;2022-08-19T09:27:33;27.30;57.70
58153;DHT22;43967;51.634;5.566;2022-08-19T09:32:34;27.30;57.70
58153;DHT22;43967;51.634;5.566;2022-08-19T09:37:35;27.30;57.70
58153;DHT22;43967;51.634;5.566;2022-08-19T09:42:36;27.30;57.70
58153;DHT22;43967;51.634;5.566;2022-08-19T09:47:37;27.30;57.70
58153;DHT22;43967;51.634;5.566;2022-08-19T09:52:38;27.30;57.70
58153;DHT22;43967;51.634;5.566;2022-08-19T09:57:40;27.30;57.80
58153;DHT22;43967;51.634;5.566;2022-08-19T10:02:41;27.30;57.80
58153;DHT22;43967;51.634;5.566;2022-08-19T10:07:42;27.30;57.80
58153;DHT22;43967;51.634;5.566;2022-08-19T10:12:43;27.30;57.80
58153;DHT22;43967;51.634;5.566;2022-08-19T10:17:44;27.30;57.80
58153;DHT22;43967;51.634;5.566;2022-08-19T10:22:45;27.30;57.80
58153;DHT22;43967;51.634;5.566;2022-08-19T10:27:46;27.30;57.70
58153;DHT22;43967;51.634;5.566;2022-08-19T10:32:47;27.30;57.70
58153;DHT22;43967;51.634;5.566;2022-08-19T10:37:48;27.30;57.80
58153;DHT22;43967;51.634;5.566;2022-08-19T10:42:49;27.40;57.90
58153;DHT22;43967;51.634;5.566;2022-08-19T10:47:50;27.40;57.90
58153;DHT22;43967;51.634;5.566;2022-08-19T10:52:51;27.40;58.00
58153;DHT22;43967;51.634;5.566;2022-08-19T10:57:53;27.40;58.00
58153;DHT22;43967;51.634;5.566;2022-08-19T11:02:54;27.40;58.00
58153;DHT22;43967;51.634;5.566;2022-08-19T11:07:55;27.40;58.00
58153;DHT22;43967;51.634;5.566;2022-08-19T11:12:56;27.40;58.00
58153;DHT22;43967;51.634;5.566;2022-08-19T11:17:57;27.40;58.00
58153;DHT22;43967;51.634;5.566;2022-08-19T11:22:58;27.40;58.00
58153;DHT22;43967;51.634;5.566;2022-08-19T11:27:59;27.40;57.90
58153;DHT22;43967;51.634;5.566;2022-08-19T11:33:00;27.40;57.90
58153;DHT22;43967;51.634;5.566;2022-08-19T11:38:02;27.40;57.90
58153;DHT22;43967;51.634;5.566;2022-08-19T11:43:03;27.40;57.90
58153;DHT22;43967;51.634;5.566;2022-08-19T11:48:04;27.40;57.80
58153;DHT22;43967;51.634;5.566;2022-08-19T11:53:05;27.40;57.80
58153;DHT22;43967;51.634;5.566;2022-08-19T11:58:06;27.50;57.90
58153;DHT22;43967;51.634;5.566;2022-08-19T12:03:08;27.50;57.90
58153;DHT22;43967;51.634;5.566;2022-08-19T12:08:09;27.50;57.90
58153;DHT22;43967;51.634;5.566;2022-08-19T12:13:11;27.50;57.90
58153;DHT22;43967;51.634;5.566;2022-08-19T12:18:13;27.50;57.90
58153;DHT22;43967;51.634;5.566;2022-08-19T12:23:14;27.50;57.80
58153;DHT22;43967;51.634;5.566;2022-08-19T12:28:20;27.60;57.80
58153;DHT22;43967;51.634;5.566;2022-08-19T12:33:21;27.60;57.70
58153;DHT22;43967;51.634;5.566;2022-08-19T12:38:23;27.50;57.70
58153;DHT22;43967;51.634;5.566;2022-08-19T12:43:24;27.60;57.70
58153;DHT22;43967;51.634;5.566;2022-08-19T12:48:25;27.60;57.80
58153;DHT22;43967;51.634;5.566;2022-08-19T12:53:26;27.60;57.80
58153;DHT22;43967;51.634;5.566;2022-08-19T12:58:28;27.60;57.70
58153;DHT22;43967;51.634;5.566;2022-08-19T13:03:29;27.60;57.70
58153;DHT22;43967;51.634;5.566;2022-08-19T13:08:34;27.60;57.70
58153;DHT22;43967;51.634;5.566;2022-08-19T13:13:35;27.60;57.70
58153;DHT22;43967;51.634;5.566;2022-08-19T13:18:37;27.60;57.80
58153;DHT22;43967;51.634;5.566;2022-08-19T13:23:39;27.60;57.70
58153;DHT22;43967;51.634;5.566;2022-08-19T13:28:41;27.60;57.70
58153;DHT22;43967;51.634;5.566;2022-08-19T13:33:42;27.60;57.70
58153;DHT22;43967;51.634;5.566;2022-08-19T13:38:43;27.60;57.70
58153;DHT22;43967;51.634;5.566;2022-08-19T13:43:44;27.60;57.70
58153;DHT22;43967;51.634;5.566;2022-08-19T13:48:46;27.60;57.70
58153;DHT22;43967;51.634;5.566;2022-08-19T13:53:47;27.60;57.70
58153;DHT22;43967;51.634;5.566;2022-08-19T13:58:48;27.60;57.70
58153;DHT22;43967;51.634;5.566;2022-08-19T14:03:50;27.70;57.80
58153;DHT22;43967;51.634;5.566;2022-08-19T14:08:51;27.60;57.80
58153;DHT22;43967;51.634;5.566;2022-08-19T14:13:55;27.60;57.80
58153;DHT22;43967;51.634;5.566;2022-08-19T14:18:56;27.60;57.90
58153;DHT22;43967;51.634;5.566;2022-08-19T14:23:57;27.60;57.90
58153;DHT22;43967;51.634;5.566;2022-08-19T14:28:58;27.60;57.90
58153;DHT22;43967;51.634;5.566;2022-08-19T14:33:59;27.60;57.90
58153;DHT22;43967;51.634;5.566;2022-08-19T14:39:00;27.60;57.50
58153;DHT22;43967;51.634;5.566;2022-08-19T14:44:01;27.50;56.90
58153;DHT22;43967;51.634;5.566;2022-08-19T14:49:02;27.50;56.90
58153;DHT22;43967;51.634;5.566;2022-08-19T14:54:03;27.50;57.60
58153;DHT22;43967;51.634;5.566;2022-08-19T14:59:05;27.50;57.60
58153;DHT22;43967;51.634;5.566;2022-08-19T15:04:06;27.60;57.70
58153;DHT22;43967;51.634;5.566;2022-08-19T15:09:07;27.60;57.70
58153;DHT22;43967;51.634;5.566;2022-08-19T15:14:08;27.60;57.80
58153;DHT22;43967;51.634;5.566;2022-08-19T15:19:10;27.60;57.90
58153;DHT22;43967;51.634;5.566;2022-08-19T15:24:11;27.60;57.90
58153;DHT22;43967;51.634;5.566;2022-08-19T15:29:12;27.60;57.90
58153;DHT22;43967;51.634;5.566;2022-08-19T15:34:13;27.60;57.90
58153;DHT22;43967;51.634;5.566;2022-08-19T15:39:14;27.60;58.10
58153;DHT22;43967;51.634;5.566;2022-08-19T15:44:18;27.60;58.10
58153;DHT22;43967;51.634;5.566;2022-08-19T15:49:19;27.60;58.10
58153;DHT22;43967;51.634;5.566;2022-08-19T15:54:20;27.60;58.20
58153;DHT22;43967;51.634;5.566;2022-08-19T15:59:22;27.60;58.20
58153;DHT22;43967;51.634;5.566;2022-08-19T16:04:23;27.60;58.30
58153;DHT22;43967;51.634;5.566;2022-08-19T16:09:27;27.60;58.30
58153;DHT22;43967;51.634;5.566;2022-08-19T16:14:33;27.60;58.30
58153;DHT22;43967;51.634;5.566;2022-08-19T16:19:34;27.60;58.40
58153;DHT22;43967;51.634;5.566;2022-08-19T16:24:36;27.50;58.50
58153;DHT22;43967;51.634;5.566;2022-08-19T16:29:37;27.50;58.60
58153;DHT22;43967;51.634;5.566;2022-08-19T16:34:40;27.50;58.60
58153;DHT22;43967;51.634;5.566;2022-08-19T16:39:41;27.50;58.70
58153;DHT22;43967;51.634;5.566;2022-08-19T16:44:44;27.50;58.80
58153;DHT22;43967;51.634;5.566;2022-08-19T16:49:45;27.50;58.80
58153;DHT22;43967;51.634;5.566;2022-08-19T16:54:46;27.50;59.00
58153;DHT22;43967;51.634;5.566;2022-08-19T16:59:48;27.50;59.20
58153;DHT22;43967;51.634;5.566;2022-08-19T17:04:50;27.50;59.40
58153;DHT22;43967;51.634;5.566;2022-08-19T17:09:51;27.50;59.80
58153;DHT22;43967;51.634;5.566;2022-08-19T17:14:52;27.40;60.00
58153;DHT22;43967;51.634;5.566;2022-08-19T17:19:53;27.40;60.00
58153;DHT22;43967;51.634;5.566;2022-08-19T17:24:55;27.40;60.10
58153;DHT22;43967;51.634;5.566;2022-08-19T17:29:56;27.40;60.20
58153;DHT22;43967;51.634;5.566;2022-08-19T17:34:57;27.40;60.30
58153;DHT22;43967;51.634;5.566;2022-08-19T17:39:58;27.40;60.50
58153;DHT22;43967;51.634;5.566;2022-08-19T17:44:59;27.40;60.70
58153;DHT22;43967;51.634;5.566;2022-08-19T17:50:00;27.40;60.80
58153;DHT22;43967;51.634;5.566;2022-08-19T17:55:03;27.40;60.90
58153;DHT22;43967;51.634;5.566;2022-08-19T18:00:05;27.40;60.80
58153;DHT22;43967;51.634;5.566;2022-08-19T18:05:07;27.40;60.50
58153;DHT22;43967;51.634;5.566;2022-08-19T18:10:09;27.40;60.30
58153;DHT22;43967;51.634;5.566;2022-08-19T18:15:11;27.40;60.10
58153;DHT22;43967;51.634;5.566;2022-08-19T18:20:14;27.40;60.00
58153;DHT22;43967;51.634;5.566;2022-08-19T18:30:19;27.40;59.90
58153;DHT22;43967;51.634;5.566;2022-08-19T18:35:23;27.40;60.00
58153;DHT22;43967;51.634;5.566;2022-08-19T18:40:26;27.40;60.70
58153;DHT22;43967;51.634;5.566;2022-08-19T18:45:28;27.40;60.00
58153;DHT22;43967;51.634;5.566;2022-08-19T18:50:30;27.40;60.10
58153;DHT22;43967;51.634;5.566;2022-08-19T18:55:31;27.40;60.00
58153;DHT22;43967;51.634;5.566;2022-08-19T19:00:32;27.30;60.00
58153;DHT22;43967;51.634;5.566;2022-08-19T19:05:33;27.30;60.00
58153;DHT22;43967;51.634;5.566;2022-08-19T19:10:34;27.30;60.00
58153;DHT22;43967;51.634;5.566;2022-08-19T19:15:36;27.30;60.10
58153;DHT22;43967;51.634;5.566;2022-08-19T19:20:37;27.30;60.80
58153;DHT22;43967;51.634;5.566;2022-08-19T19:25:38;27.30;60.10
58153;DHT22;43967;51.634;5.566;2022-08-19T19:30:39;27.30;60.20
58153;DHT22;43967;51.634;5.566;2022-08-19T19:35:40;27.30;60.20
58153;DHT22;43967;51.634;5.566;2022-08-19T19:40:41;27.30;60.20
58153;DHT22;43967;51.634;5.566;2022-08-19T19:45:43;27.30;60.20
58153;DHT22;43967;51.634;5.566;2022-08-19T19:50:46;27.30;60.20
58153;DHT22;43967;51.634;5.566;2022-08-19T19:55:47;27.30;60.30
58153;DHT22;43967;51.634;5.566;2022-08-19T20:00:48;27.30;60.30
58153;DHT22;43967;51.634;5.566;2022-08-19T20:05:50;27.20;60.20
58153;DHT22;43967;51.634;5.566;2022-08-19T20:10:51;27.20;60.30
58153;DHT22;43967;51.634;5.566;2022-08-19T20:15:52;27.20;60.30
58153;DHT22;43967;51.634;5.566;2022-08-19T20:20:53;27.20;60.30
58153;DHT22;43967;51.634;5.566;2022-08-19T20:25:54;27.20;60.30
58153;DHT22;43967;51.634;5.566;2022-08-19T20:30:55;27.20;60.30
58153;DHT22;43967;51.634;5.566;2022-08-19T20:35:56;27.20;60.40
58153;DHT22;43967;51.634;5.566;2022-08-19T20:40:57;27.20;60.40
58153;DHT22;43967;51.634;5.566;2022-08-19T20:45:59;27.20;60.50
58153;DHT22;43967;51.634;5.566;2022-08-19T20:51:00;27.20;60.50
58153;DHT22;43967;51.634;5.566;2022-08-19T20:56:02;27.20;60.50
58153;DHT22;43967;51.634;5.566;2022-08-19T21:01:04;27.20;60.60
58153;DHT22;43967;51.634;5.566;2022-08-19T21:06:07;27.20;60.60
58153;DHT22;43967;51.634;5.566;2022-08-19T21:11:08;27.20;60.60
58153;DHT22;43967;51.634;5.566;2022-08-19T21:16:10;27.20;60.70
58153;DHT22;43967;51.634;5.566;2022-08-19T21:21:11;27.10;61.30
58153;DHT22;43967;51.634;5.566;2022-08-19T21:26:12;27.10;60.60
58153;DHT22;43967;51.634;5.566;2022-08-19T21:31:14;27.10;60.70
58153;DHT22;43967;51.634;5.566;2022-08-19T21:36:15;27.10;60.70
58153;DHT22;43967;51.634;5.566;2022-08-19T21:41:16;27.10;60.70
58153;DHT22;43967;51.634;5.566;2022-08-19T21:46:17;27.10;60.80
58153;DHT22;43967;51.634;5.566;2022-08-19T21:51:18;27.10;60.80
58153;DHT22;43967;51.634;5.566;2022-08-19T21:56:19;27.10;60.80
58153;DHT22;43967;51.634;5.566;2022-08-19T22:01:20;27.10;60.80
58153;DHT22;43967;51.634;5.566;2022-08-19T22:06:21;27.10;61.50
58153;DHT22;43967;51.634;5.566;2022-08-19T22:11:24;27.10;60.80
58153;DHT22;43967;51.634;5.566;2022-08-19T22:16:25;27.10;60.80
58153;DHT22;43967;51.634;5.566;2022-08-19T22:21:26;27.10;60.90
58153;DHT22;43967;51.634;5.566;2022-08-19T22:26:27;27.10;60.90
58153;DHT22;43967;51.634;5.566;2022-08-19T22:31:28;27.10;60.90
58153;DHT22;43967;51.634;5.566;2022-08-19T22:36:30;27.10;60.90
58153;DHT22;43967;51.634;5.566;2022-08-19T22:41:31;27.00;60.80
58153;DHT22;43967;51.634;5.566;2022-08-19T22:46:33;27.10;60.90
58153;DHT22;43967;51.634;5.566;2022-08-19T22:51:34;27.00;62.20
58153;DHT22;43967;51.634;5.566;2022-08-19T22:56:35;26.60;64.20
58153;DHT22;43967;51.634;5.566;2022-08-19T23:01:36;26.60;63.60
58153;DHT22;43967;51.634;5.566;2022-08-19T23:06:37;26.40;64.50
58153;DHT22;43967;51.634;5.566;2022-08-19T23:11:39;25.30;68.40
58153;DHT22;43967;51.634;5.566;2022-08-19T23:16:40;25.10;69.40
58153;DHT22;43967;51.634;5.566;2022-08-19T23:21:42;25.80;67.30
58153;DHT22;43967;51.634;5.566;2022-08-19T23:26:43;26.10;66.10
58153;DHT22;43967;51.634;5.566;2022-08-19T23:31:44;26.30;65.40
58153;DHT22;43967;51.634;5.566;2022-08-19T23:36:45;26.50;65.00
58153;DHT22;43967;51.634;5.566;2022-08-19T23:41:46;26.60;64.60
58153;DHT22;43967;51.634;5.566;2022-08-19T23:46:47;26.60;64.10
58153;DHT22;43967;51.634;5.566;2022-08-19T23:51:49;26.70;63.90
58153;DHT22;43967;51.634;5.566;2022-08-19T23:56:50;26.80;63.70
